KMKN

Comanche County-City Airport

Comanche, Texas, USA
METAR KMKN 212315Z AUTO 11005KT 10SM SCT120 35/19 A3007 RMK AO2 LTG DSNT W T03510188
Observed Flight Rules
Aug-21 @ 23:15 UTC (31 minutes ago) Visual Flight Rules
Wind Visibility Clouds
110° at 5 knots 10 miles
  • Scattered at 12,000' AGL
Temperatures Readings
Current 35°C / 95°F
Dewpoint 19°C / 66°F
Humidity 39%
Altimeter 30.07" Hg
Pressure 1018 hPa
Elevation 423
METAR KMKN 212315Z AUTO 11005KT 10SM SCT120 35/19 A3007 RMK AO2 LTG DSNT W T03510188
Observed Flight Rules
Aug-21 @ 23:15 UTC
(31 minutes ago)
VFR
Wind Visibility
110° at 5 knots 10 miles
Clouds
  • Scattered at 12,000' AGL
Temperature Dewpoint
35°C / 95°F 19°C / 66°F
Humidity Altimeter Pressure
39% 30.07" Hg 1018 hPa